sensor_id;sensor_type;location;lat;lon;timestamp;P1;durP1;ratioP1;P2;durP2;ratioP2
19687;SDS011;9993;52.008;4.732;2022-07-06T00:00:25;2.10;;;2.00;;
19687;SDS011;9993;52.008;4.732;2022-07-06T00:02:50;3.60;;;2.00;;
19687;SDS011;9993;52.008;4.732;2022-07-06T00:05:16;4.15;;;1.83;;
19687;SDS011;9993;52.008;4.732;2022-07-06T00:07:41;1.98;;;1.88;;
19687;SDS011;9993;52.008;4.732;2022-07-06T00:10:06;2.03;;;1.90;;
19687;SDS011;9993;52.008;4.732;2022-07-06T00:12:31;2.85;;;1.73;;
19687;SDS011;9993;52.008;4.732;2022-07-06T00:14:57;2.20;;;1.95;;
19687;SDS011;9993;52.008;4.732;2022-07-06T00:17:22;2.10;;;1.90;;
19687;SDS011;9993;52.008;4.732;2022-07-06T00:19:47;1.98;;;1.85;;
19687;SDS011;9993;52.008;4.732;2022-07-06T00:22:12;2.85;;;1.88;;
19687;SDS011;9993;52.008;4.732;2022-07-06T00:24:38;2.97;;;2.00;;
19687;SDS011;9993;52.008;4.732;2022-07-06T00:27:03;3.38;;;1.85;;
19687;SDS011;9993;52.008;4.732;2022-07-06T00:29:31;4.18;;;1.75;;
19687;SDS011;9993;52.008;4.732;2022-07-06T00:32:00;2.42;;;1.75;;
19687;SDS011;9993;52.008;4.732;2022-07-06T00:34:34;2.10;;;1.90;;
19687;SDS011;9993;52.008;4.732;2022-07-06T00:37:00;2.78;;;2.10;;
19687;SDS011;9993;52.008;4.732;2022-07-06T00:39:25;5.55;;;2.22;;
19687;SDS011;9993;52.008;4.732;2022-07-06T00:41:54;2.40;;;1.98;;
19687;SDS011;9993;52.008;4.732;2022-07-06T00:44:19;4.07;;;2.00;;
19687;SDS011;9993;52.008;4.732;2022-07-06T00:46:44;2.67;;;1.98;;
19687;SDS011;9993;52.008;4.732;2022-07-06T00:49:09;3.08;;;2.00;;
19687;SDS011;9993;52.008;4.732;2022-07-06T00:51:54;3.03;;;1.90;;
19687;SDS011;9993;52.008;4.732;2022-07-06T00:54:20;2.50;;;1.90;;
19687;SDS011;9993;52.008;4.732;2022-07-06T00:56:45;2.33;;;1.80;;
19687;SDS011;9993;52.008;4.732;2022-07-06T00:59:10;3.97;;;1.92;;
19687;SDS011;9993;52.008;4.732;2022-07-06T01:01:37;2.20;;;2.00;;
19687;SDS011;9993;52.008;4.732;2022-07-06T01:04:02;6.68;;;1.90;;
19687;SDS011;9993;52.008;4.732;2022-07-06T01:06:27;2.78;;;1.92;;
19687;SDS011;9993;52.008;4.732;2022-07-06T01:08:52;3.55;;;1.90;;
19687;SDS011;9993;52.008;4.732;2022-07-06T01:11:18;3.05;;;1.98;;
19687;SDS011;9993;52.008;4.732;2022-07-06T01:13:44;2.85;;;1.83;;
19687;SDS011;9993;52.008;4.732;2022-07-06T01:16:09;3.05;;;2.10;;
19687;SDS011;9993;52.008;4.732;2022-07-06T01:18:36;5.15;;;1.90;;
19687;SDS011;9993;52.008;4.732;2022-07-06T01:21:12;1.70;;;1.60;;
19687;SDS011;9993;52.008;4.732;2022-07-06T01:23:42;3.28;;;1.67;;
19687;SDS011;9993;52.008;4.732;2022-07-06T01:26:08;2.00;;;1.90;;
19687;SDS011;9993;52.008;4.732;2022-07-06T01:28:33;2.28;;;2.08;;
19687;SDS011;9993;52.008;4.732;2022-07-06T01:30:59;3.53;;;2.00;;
19687;SDS011;9993;52.008;4.732;2022-07-06T01:37:37;2.97;;;1.50;;
19687;SDS011;9993;52.008;4.732;2022-07-06T01:40:06;2.50;;;2.15;;
19687;SDS011;9993;52.008;4.732;2022-07-06T01:42:32;3.00;;;1.90;;
19687;SDS011;9993;52.008;4.732;2022-07-06T01:44:57;2.65;;;1.95;;
19687;SDS011;9993;52.008;4.732;2022-07-06T01:47:23;3.55;;;2.33;;
19687;SDS011;9993;52.008;4.732;2022-07-06T01:49:48;4.05;;;2.40;;
19687;SDS011;9993;52.008;4.732;2022-07-06T01:52:13;2.65;;;1.98;;
19687;SDS011;9993;52.008;4.732;2022-07-06T01:54:38;3.78;;;1.90;;
19687;SDS011;9993;52.008;4.732;2022-07-06T01:57:04;1.98;;;1.75;;
19687;SDS011;9993;52.008;4.732;2022-07-06T01:59:29;4.30;;;2.00;;
19687;SDS011;9993;52.008;4.732;2022-07-06T02:01:54;2.17;;;1.55;;
19687;SDS011;9993;52.008;4.732;2022-07-06T02:04:20;2.22;;;1.90;;
19687;SDS011;9993;52.008;4.732;2022-07-06T02:06:45;2.38;;;1.85;;
19687;SDS011;9993;52.008;4.732;2022-07-06T02:09:10;2.45;;;1.63;;
19687;SDS011;9993;52.008;4.732;2022-07-06T02:11:35;3.60;;;1.75;;
19687;SDS011;9993;52.008;4.732;2022-07-06T02:14:00;2.53;;;2.10;;
19687;SDS011;9993;52.008;4.732;2022-07-06T02:16:26;3.67;;;2.00;;
19687;SDS011;9993;52.008;4.732;2022-07-06T02:18:51;3.17;;;2.05;;
19687;SDS011;9993;52.008;4.732;2022-07-06T02:21:19;2.05;;;1.95;;
19687;SDS011;9993;52.008;4.732;2022-07-06T02:23:50;2.05;;;1.85;;
19687;SDS011;9993;52.008;4.732;2022-07-06T02:26:15;4.10;;;2.13;;
19687;SDS011;9993;52.008;4.732;2022-07-06T02:28:41;3.10;;;2.05;;
19687;SDS011;9993;52.008;4.732;2022-07-06T02:31:06;3.75;;;1.80;;
19687;SDS011;9993;52.008;4.732;2022-07-06T02:33:31;1.90;;;1.80;;
19687;SDS011;9993;52.008;4.732;2022-07-06T02:35:58;3.50;;;1.73;;
19687;SDS011;9993;52.008;4.732;2022-07-06T02:38:24;3.67;;;1.92;;
19687;SDS011;9993;52.008;4.732;2022-07-06T02:40:55;2.80;;;1.70;;
19687;SDS011;9993;52.008;4.732;2022-07-06T02:43:20;2.90;;;1.88;;
19687;SDS011;9993;52.008;4.732;2022-07-06T02:45:48;2.88;;;1.77;;
19687;SDS011;9993;52.008;4.732;2022-07-06T02:48:13;4.53;;;2.40;;
19687;SDS011;9993;52.008;4.732;2022-07-06T02:50:39;1.85;;;1.75;;
19687;SDS011;9993;52.008;4.732;2022-07-06T02:53:07;2.95;;;1.77;;
19687;SDS011;9993;52.008;4.732;2022-07-06T02:55:32;2.50;;;1.90;;
19687;SDS011;9993;52.008;4.732;2022-07-06T02:57:57;3.03;;;2.05;;
19687;SDS011;9993;52.008;4.732;2022-07-06T03:00:22;2.67;;;1.60;;
19687;SDS011;9993;52.008;4.732;2022-07-06T03:02:48;2.00;;;1.80;;
19687;SDS011;9993;52.008;4.732;2022-07-06T03:05:15;2.40;;;1.80;;
19687;SDS011;9993;52.008;4.732;2022-07-06T03:07:40;1.80;;;1.70;;
19687;SDS011;9993;52.008;4.732;2022-07-06T03:10:11;1.80;;;1.70;;
19687;SDS011;9993;52.008;4.732;2022-07-06T03:12:37;2.55;;;1.70;;
19687;SDS011;9993;52.008;4.732;2022-07-06T03:15:02;2.60;;;1.77;;
19687;SDS011;9993;52.008;4.732;2022-07-06T03:17:28;2.60;;;2.15;;
19687;SDS011;9993;52.008;4.732;2022-07-06T03:20:06;2.40;;;1.70;;
19687;SDS011;9993;52.008;4.732;2022-07-06T03:22:32;3.60;;;2.45;;
19687;SDS011;9993;52.008;4.732;2022-07-06T03:24:57;3.75;;;2.28;;
19687;SDS011;9993;52.008;4.732;2022-07-06T03:27:37;4.32;;;2.30;;
19687;SDS011;9993;52.008;4.732;2022-07-06T03:30:03;3.35;;;2.30;;
19687;SDS011;9993;52.008;4.732;2022-07-06T03:32:46;3.50;;;2.45;;
19687;SDS011;9993;52.008;4.732;2022-07-06T03:35:12;4.13;;;1.67;;
19687;SDS011;9993;52.008;4.732;2022-07-06T03:37:43;2.30;;;1.90;;
19687;SDS011;9993;52.008;4.732;2022-07-06T03:40:08;1.70;;;1.60;;
19687;SDS011;9993;52.008;4.732;2022-07-06T03:42:35;2.88;;;2.28;;
19687;SDS011;9993;52.008;4.732;2022-07-06T03:45:00;4.75;;;2.40;;
19687;SDS011;9993;52.008;4.732;2022-07-06T03:47:25;2.67;;;2.40;;
19687;SDS011;9993;52.008;4.732;2022-07-06T03:49:50;7.60;;;2.78;;
19687;SDS011;9993;52.008;4.732;2022-07-06T03:52:15;3.53;;;2.50;;
19687;SDS011;9993;52.008;4.732;2022-07-06T03:54:41;4.65;;;2.00;;
19687;SDS011;9993;52.008;4.732;2022-07-06T03:57:06;3.42;;;2.13;;
19687;SDS011;9993;52.008;4.732;2022-07-06T03:59:31;4.40;;;2.15;;
19687;SDS011;9993;52.008;4.732;2022-07-06T04:01:56;3.72;;;1.90;;
19687;SDS011;9993;52.008;4.732;2022-07-06T04:04:21;2.40;;;1.73;;
19687;SDS011;9993;52.008;4.732;2022-07-06T04:06:47;4.05;;;2.00;;
19687;SDS011;9993;52.008;4.732;2022-07-06T04:09:12;3.10;;;1.63;;
19687;SDS011;9993;52.008;4.732;2022-07-06T04:11:40;3.90;;;1.63;;
19687;SDS011;9993;52.008;4.732;2022-07-06T04:14:06;2.97;;;1.60;;
19687;SDS011;9993;52.008;4.732;2022-07-06T04:16:33;1.98;;;1.58;;
19687;SDS011;9993;52.008;4.732;2022-07-06T04:18:59;1.40;;;1.30;;
19687;SDS011;9993;52.008;4.732;2022-07-06T04:21:27;1.52;;;1.42;;
19687;SDS011;9993;52.008;4.732;2022-07-06T04:23:52;2.05;;;1.90;;
19687;SDS011;9993;52.008;4.732;2022-07-06T04:26:23;3.38;;;1.80;;
19687;SDS011;9993;52.008;4.732;2022-07-06T04:29:04;1.50;;;1.42;;
19687;SDS011;9993;52.008;4.732;2022-07-06T04:31:29;1.52;;;1.30;;
19687;SDS011;9993;52.008;4.732;2022-07-06T04:33:54;3.92;;;1.55;;
19687;SDS011;9993;52.008;4.732;2022-07-06T04:36:19;2.00;;;1.70;;
19687;SDS011;9993;52.008;4.732;2022-07-06T04:38:54;5.65;;;1.75;;
19687;SDS011;9993;52.008;4.732;2022-07-06T04:41:19;1.58;;;1.50;;
19687;SDS011;9993;52.008;4.732;2022-07-06T04:43:44;2.70;;;1.70;;
19687;SDS011;9993;52.008;4.732;2022-07-06T04:46:09;2.80;;;1.67;;
19687;SDS011;9993;52.008;4.732;2022-07-06T04:48:35;3.90;;;1.65;;
19687;SDS011;9993;52.008;4.732;2022-07-06T04:51:16;3.65;;;1.50;;
19687;SDS011;9993;52.008;4.732;2022-07-06T04:53:41;1.80;;;1.70;;
19687;SDS011;9993;52.008;4.732;2022-07-06T04:56:19;1.95;;;1.45;;
19687;SDS011;9993;52.008;4.732;2022-07-06T04:58:59;1.52;;;1.40;;
19687;SDS011;9993;52.008;4.732;2022-07-06T05:01:39;1.83;;;1.67;;
19687;SDS011;9993;52.008;4.732;2022-07-06T05:04:11;1.80;;;1.58;;
19687;SDS011;9993;52.008;4.732;2022-07-06T05:06:36;2.08;;;1.60;;
19687;SDS011;9993;52.008;4.732;2022-07-06T05:09:16;2.92;;;1.60;;
19687;SDS011;9993;52.008;4.732;2022-07-06T05:11:42;4.25;;;1.50;;
19687;SDS011;9993;52.008;4.732;2022-07-06T05:14:07;1.60;;;1.50;;
19687;SDS011;9993;52.008;4.732;2022-07-06T05:16:36;1.75;;;1.60;;
19687;SDS011;9993;52.008;4.732;2022-07-06T05:19:01;3.95;;;1.70;;
19687;SDS011;9993;52.008;4.732;2022-07-06T05:21:26;2.00;;;1.70;;
19687;SDS011;9993;52.008;4.732;2022-07-06T05:23:51;1.92;;;1.83;;
19687;SDS011;9993;52.008;4.732;2022-07-06T05:26:17;2.70;;;1.63;;
19687;SDS011;9993;52.008;4.732;2022-07-06T05:28:42;3.85;;;1.75;;
19687;SDS011;9993;52.008;4.732;2022-07-06T05:31:07;2.22;;;1.63;;
19687;SDS011;9993;52.008;4.732;2022-07-06T05:33:32;2.20;;;1.67;;
19687;SDS011;9993;52.008;4.732;2022-07-06T05:35:58;3.00;;;1.65;;
19687;SDS011;9993;52.008;4.732;2022-07-06T05:38:23;2.15;;;1.80;;
19687;SDS011;9993;52.008;4.732;2022-07-06T05:40:48;1.73;;;1.50;;
19687;SDS011;9993;52.008;4.732;2022-07-06T05:43:13;2.80;;;1.83;;
19687;SDS011;9993;52.008;4.732;2022-07-06T05:45:39;5.80;;;1.50;;
19687;SDS011;9993;52.008;4.732;2022-07-06T05:48:04;1.95;;;1.55;;
19687;SDS011;9993;52.008;4.732;2022-07-06T05:50:48;2.75;;;1.35;;
19687;SDS011;9993;52.008;4.732;2022-07-06T05:53:13;2.15;;;1.50;;
19687;SDS011;9993;52.008;4.732;2022-07-06T05:55:38;1.77;;;1.30;;
19687;SDS011;9993;52.008;4.732;2022-07-06T05:58:04;2.00;;;1.45;;
19687;SDS011;9993;52.008;4.732;2022-07-06T06:00:29;3.67;;;1.60;;
19687;SDS011;9993;52.008;4.732;2022-07-06T06:02:54;1.25;;;1.15;;
19687;SDS011;9993;52.008;4.732;2022-07-06T06:05:19;2.08;;;1.30;;
19687;SDS011;9993;52.008;4.732;2022-07-06T06:07:45;1.83;;;1.30;;
19687;SDS011;9993;52.008;4.732;2022-07-06T06:10:16;1.92;;;1.10;;
19687;SDS011;9993;52.008;4.732;2022-07-06T06:12:41;3.45;;;1.30;;
19687;SDS011;9993;52.008;4.732;2022-07-06T06:15:07;1.63;;;1.30;;
19687;SDS011;9993;52.008;4.732;2022-07-06T06:17:32;2.55;;;1.27;;
19687;SDS011;9993;52.008;4.732;2022-07-06T06:19:58;1.57;;;1.20;;
19687;SDS011;9993;52.008;4.732;2022-07-06T06:22:23;1.92;;;1.15;;
19687;SDS011;9993;52.008;4.732;2022-07-06T06:24:49;1.63;;;1.35;;
19687;SDS011;9993;52.008;4.732;2022-07-06T06:27:14;1.92;;;1.20;;
19687;SDS011;9993;52.008;4.732;2022-07-06T06:29:39;1.30;;;1.20;;
19687;SDS011;9993;52.008;4.732;2022-07-06T06:32:06;1.98;;;1.25;;
19687;SDS011;9993;52.008;4.732;2022-07-06T06:34:31;1.90;;;1.20;;
19687;SDS011;9993;52.008;4.732;2022-07-06T06:36:56;1.55;;;1.17;;
19687;SDS011;9993;52.008;4.732;2022-07-06T06:39:22;1.35;;;1.25;;
19687;SDS011;9993;52.008;4.732;2022-07-06T06:41:47;1.75;;;1.20;;
19687;SDS011;9993;52.008;4.732;2022-07-06T06:44:12;1.23;;;1.20;;
19687;SDS011;9993;52.008;4.732;2022-07-06T06:46:37;1.57;;;1.30;;
19687;SDS011;9993;52.008;4.732;2022-07-06T06:49:03;2.03;;;1.25;;
19687;SDS011;9993;52.008;4.732;2022-07-06T06:51:28;1.38;;;1.27;;
19687;SDS011;9993;52.008;4.732;2022-07-06T06:53:53;4.10;;;1.30;;
19687;SDS011;9993;52.008;4.732;2022-07-06T06:56:18;1.20;;;1.20;;
19687;SDS011;9993;52.008;4.732;2022-07-06T06:58:44;1.58;;;1.10;;
19687;SDS011;9993;52.008;4.732;2022-07-06T07:01:09;1.77;;;1.08;;
19687;SDS011;9993;52.008;4.732;2022-07-06T07:03:34;1.73;;;1.30;;
19687;SDS011;9993;52.008;4.732;2022-07-06T07:05:59;1.27;;;1.17;;
19687;SDS011;9993;52.008;4.732;2022-07-06T07:08:25;1.60;;;1.02;;
19687;SDS011;9993;52.008;4.732;2022-07-06T07:10:50;1.88;;;1.15;;
19687;SDS011;9993;52.008;4.732;2022-07-06T07:13:16;1.60;;;1.10;;
19687;SDS011;9993;52.008;4.732;2022-07-06T07:15:41;2.25;;;1.20;;
19687;SDS011;9993;52.008;4.732;2022-07-06T07:18:06;1.80;;;1.13;;
19687;SDS011;9993;52.008;4.732;2022-07-06T07:20:31;1.25;;;1.15;;
19687;SDS011;9993;52.008;4.732;2022-07-06T07:22:58;2.45;;;1.30;;
19687;SDS011;9993;52.008;4.732;2022-07-06T07:25:23;2.30;;;1.10;;
19687;SDS011;9993;52.008;4.732;2022-07-06T07:27:49;1.23;;;1.10;;
19687;SDS011;9993;52.008;4.732;2022-07-06T07:30:14;3.70;;;1.33;;
19687;SDS011;9993;52.008;4.732;2022-07-06T07:32:39;1.98;;;1.15;;
19687;SDS011;9993;52.008;4.732;2022-07-06T07:35:05;1.08;;;1.00;;
19687;SDS011;9993;52.008;4.732;2022-07-06T07:37:30;1.73;;;1.10;;
19687;SDS011;9993;52.008;4.732;2022-07-06T07:39:56;2.80;;;1.10;;
19687;SDS011;9993;52.008;4.732;2022-07-06T07:42:21;1.95;;;1.00;;
19687;SDS011;9993;52.008;4.732;2022-07-06T07:44:46;1.80;;;1.00;;
19687;SDS011;9993;52.008;4.732;2022-07-06T07:47:11;1.60;;;1.00;;
19687;SDS011;9993;52.008;4.732;2022-07-06T07:49:36;1.20;;;1.10;;
19687;SDS011;9993;52.008;4.732;2022-07-06T07:52:02;0.98;;;0.85;;
19687;SDS011;9993;52.008;4.732;2022-07-06T07:54:27;0.98;;;0.90;;
19687;SDS011;9993;52.008;4.732;2022-07-06T07:56:52;1.00;;;1.00;;
19687;SDS011;9993;52.008;4.732;2022-07-06T07:59:17;1.37;;;1.03;;
19687;SDS011;9993;52.008;4.732;2022-07-06T08:01:43;1.30;;;1.13;;
19687;SDS011;9993;52.008;4.732;2022-07-06T08:04:08;1.80;;;1.10;;
19687;SDS011;9993;52.008;4.732;2022-07-06T08:06:33;0.95;;;0.90;;
19687;SDS011;9993;52.008;4.732;2022-07-06T08:08:59;1.80;;;1.05;;
19687;SDS011;9993;52.008;4.732;2022-07-06T08:11:24;1.15;;;1.05;;
19687;SDS011;9993;52.008;4.732;2022-07-06T08:13:49;1.10;;;1.00;;
19687;SDS011;9993;52.008;4.732;2022-07-06T08:16:14;1.00;;;1.00;;
19687;SDS011;9993;52.008;4.732;2022-07-06T08:18:40;1.17;;;1.00;;
19687;SDS011;9993;52.008;4.732;2022-07-06T08:21:05;1.33;;;0.95;;
19687;SDS011;9993;52.008;4.732;2022-07-06T08:23:31;2.60;;;1.00;;
19687;SDS011;9993;52.008;4.732;2022-07-06T08:25:56;0.90;;;0.90;;
19687;SDS011;9993;52.008;4.732;2022-07-06T08:28:21;0.80;;;0.80;;
19687;SDS011;9993;52.008;4.732;2022-07-06T08:30:46;1.23;;;0.90;;
19687;SDS011;9993;52.008;4.732;2022-07-06T08:33:12;1.45;;;1.00;;
19687;SDS011;9993;52.008;4.732;2022-07-06T08:35:37;1.55;;;0.90;;
19687;SDS011;9993;52.008;4.732;2022-07-06T08:38:02;0.90;;;0.90;;
19687;SDS011;9993;52.008;4.732;2022-07-06T08:40:32;0.90;;;0.90;;
19687;SDS011;9993;52.008;4.732;2022-07-06T08:42:57;0.98;;;0.90;;
19687;SDS011;9993;52.008;4.732;2022-07-06T08:45:24;2.13;;;1.00;;
19687;SDS011;9993;52.008;4.732;2022-07-06T08:47:50;1.80;;;0.90;;
19687;SDS011;9993;52.008;4.732;2022-07-06T08:50:15;0.82;;;0.70;;
19687;SDS011;9993;52.008;4.732;2022-07-06T08:52:41;0.90;;;0.73;;
19687;SDS011;9993;52.008;4.732;2022-07-06T08:55:08;1.48;;;0.85;;
19687;SDS011;9993;52.008;4.732;2022-07-06T08:57:36;1.27;;;0.80;;
19687;SDS011;9993;52.008;4.732;2022-07-06T09:00:07;0.75;;;0.73;;
19687;SDS011;9993;52.008;4.732;2022-07-06T09:02:33;0.93;;;0.70;;
19687;SDS011;9993;52.008;4.732;2022-07-06T09:04:59;0.70;;;0.70;;
19687;SDS011;9993;52.008;4.732;2022-07-06T09:07:28;2.20;;;0.80;;
19687;SDS011;9993;52.008;4.732;2022-07-06T09:09:54;0.80;;;0.80;;
19687;SDS011;9993;52.008;4.732;2022-07-06T09:12:19;1.48;;;0.80;;
19687;SDS011;9993;52.008;4.732;2022-07-06T09:14:44;2.28;;;0.80;;
19687;SDS011;9993;52.008;4.732;2022-07-06T09:17:14;0.70;;;0.70;;
19687;SDS011;9993;52.008;4.732;2022-07-06T09:19:39;1.30;;;1.17;;
19687;SDS011;9993;52.008;4.732;2022-07-06T09:22:04;1.05;;;0.80;;
19687;SDS011;9993;52.008;4.732;2022-07-06T09:24:30;3.50;;;0.85;;
19687;SDS011;9993;52.008;4.732;2022-07-06T09:26:56;0.95;;;0.88;;
19687;SDS011;9993;52.008;4.732;2022-07-06T09:29:32;0.98;;;0.80;;
19687;SDS011;9993;52.008;4.732;2022-07-06T09:31:58;1.33;;;0.80;;
19687;SDS011;9993;52.008;4.732;2022-07-06T09:34:23;2.47;;;0.90;;
19687;SDS011;9993;52.008;4.732;2022-07-06T09:36:55;2.50;;;0.88;;
19687;SDS011;9993;52.008;4.732;2022-07-06T09:39:27;0.70;;;0.70;;
19687;SDS011;9993;52.008;4.732;2022-07-06T09:41:56;1.52;;;0.80;;
19687;SDS011;9993;52.008;4.732;2022-07-06T09:44:33;0.88;;;0.85;;
19687;SDS011;9993;52.008;4.732;2022-07-06T09:47:05;0.70;;;0.70;;
19687;SDS011;9993;52.008;4.732;2022-07-06T09:49:30;0.82;;;0.70;;
19687;SDS011;9993;52.008;4.732;2022-07-06T09:52:06;0.70;;;0.70;;
19687;SDS011;9993;52.008;4.732;2022-07-06T09:54:32;0.82;;;0.80;;
19687;SDS011;9993;52.008;4.732;2022-07-06T09:56:58;0.80;;;0.80;;
19687;SDS011;9993;52.008;4.732;2022-07-06T09:59:27;0.77;;;0.77;;
19687;SDS011;9993;52.008;4.732;2022-07-06T10:01:53;0.98;;;0.90;;
19687;SDS011;9993;52.008;4.732;2022-07-06T10:04:19;2.10;;;0.80;;
19687;SDS011;9993;52.008;4.732;2022-07-06T10:06:48;1.35;;;0.82;;
19687;SDS011;9993;52.008;4.732;2022-07-06T10:09:13;1.63;;;1.08;;
19687;SDS011;9993;52.008;4.732;2022-07-06T10:11:40;2.45;;;1.10;;
19687;SDS011;9993;52.008;4.732;2022-07-06T10:14:06;1.10;;;1.00;;
19687;SDS011;9993;52.008;4.732;2022-07-06T10:16:33;1.25;;;0.93;;
19687;SDS011;9993;52.008;4.732;2022-07-06T10:18:59;1.70;;;1.08;;
19687;SDS011;9993;52.008;4.732;2022-07-06T10:21:29;2.08;;;1.25;;
19687;SDS011;9993;52.008;4.732;2022-07-06T10:23:55;2.72;;;1.00;;
19687;SDS011;9993;52.008;4.732;2022-07-06T10:26:31;2.10;;;1.08;;
19687;SDS011;9993;52.008;4.732;2022-07-06T10:29:00;1.20;;;1.05;;
19687;SDS011;9993;52.008;4.732;2022-07-06T10:31:26;1.15;;;1.05;;
19687;SDS011;9993;52.008;4.732;2022-07-06T10:33:54;2.58;;;1.10;;
19687;SDS011;9993;52.008;4.732;2022-07-06T10:36:20;1.40;;;1.20;;
19687;SDS011;9993;52.008;4.732;2022-07-06T10:38:49;1.20;;;1.02;;
19687;SDS011;9993;52.008;4.732;2022-07-06T10:41:14;2.33;;;1.00;;
19687;SDS011;9993;52.008;4.732;2022-07-06T10:43:43;1.20;;;1.10;;
19687;SDS011;9993;52.008;4.732;2022-07-06T10:46:10;1.17;;;0.82;;
19687;SDS011;9993;52.008;4.732;2022-07-06T10:48:40;1.13;;;1.00;;
19687;SDS011;9993;52.008;4.732;2022-07-06T10:51:08;1.95;;;1.20;;
19687;SDS011;9993;52.008;4.732;2022-07-06T10:53:39;2.25;;;1.08;;
19687;SDS011;9993;52.008;4.732;2022-07-06T10:56:08;1.10;;;1.00;;
19687;SDS011;9993;52.008;4.732;2022-07-06T10:58:34;2.13;;;1.08;;
19687;SDS011;9993;52.008;4.732;2022-07-06T11:00:59;1.30;;;1.20;;
19687;SDS011;9993;52.008;4.732;2022-07-06T11:13:47;2.63;;;0.85;;
19687;SDS011;9993;52.008;4.732;2022-07-06T11:16:12;2.03;;;0.70;;
19687;SDS011;9993;52.008;4.732;2022-07-06T11:18:39;2.28;;;0.95;;
19687;SDS011;9993;52.008;4.732;2022-07-06T11:23:45;1.58;;;1.00;;
19687;SDS011;9993;52.008;4.732;2022-07-06T11:26:11;2.17;;;1.00;;
19687;SDS011;9993;52.008;4.732;2022-07-06T11:28:37;1.58;;;1.05;;
19687;SDS011;9993;52.008;4.732;2022-07-06T11:31:02;0.70;;;0.70;;
19687;SDS011;9993;52.008;4.732;2022-07-06T11:33:28;2.03;;;0.80;;
19687;SDS011;9993;52.008;4.732;2022-07-06T11:36:10;1.65;;;0.80;;
19687;SDS011;9993;52.008;4.732;2022-07-06T11:38:36;2.35;;;0.77;;
19687;SDS011;9993;52.008;4.732;2022-07-06T11:41:01;4.07;;;0.90;;
19687;SDS011;9993;52.008;4.732;2022-07-06T11:43:26;1.90;;;0.85;;
19687;SDS011;9993;52.008;4.732;2022-07-06T11:45:51;2.00;;;0.80;;
19687;SDS011;9993;52.008;4.732;2022-07-06T11:48:16;2.63;;;0.98;;
19687;SDS011;9993;52.008;4.732;2022-07-06T11:51:00;2.70;;;0.90;;
19687;SDS011;9993;52.008;4.732;2022-07-06T11:53:26;1.05;;;0.70;;
19687;SDS011;9993;52.008;4.732;2022-07-06T11:55:51;0.70;;;0.60;;
19687;SDS011;9993;52.008;4.732;2022-07-06T11:58:20;2.38;;;0.75;;
19687;SDS011;9993;52.008;4.732;2022-07-06T12:01:02;0.90;;;0.80;;
19687;SDS011;9993;52.008;4.732;2022-07-06T12:03:27;2.35;;;1.38;;
19687;SDS011;9993;52.008;4.732;2022-07-06T12:05:52;2.40;;;1.10;;
19687;SDS011;9993;52.008;4.732;2022-07-06T12:08:18;0.70;;;0.70;;
19687;SDS011;9993;52.008;4.732;2022-07-06T12:10:43;2.23;;;1.03;;
19687;SDS011;9993;52.008;4.732;2022-07-06T12:13:08;1.53;;;1.00;;
19687;SDS011;9993;52.008;4.732;2022-07-06T12:15:33;3.28;;;2.20;;
19687;SDS011;9993;52.008;4.732;2022-07-06T12:17:59;1.77;;;1.20;;
19687;SDS011;9993;52.008;4.732;2022-07-06T12:20:24;2.60;;;0.95;;
19687;SDS011;9993;52.008;4.732;2022-07-06T12:23:00;2.30;;;1.00;;
19687;SDS011;9993;52.008;4.732;2022-07-06T12:25:29;2.53;;;1.55;;
19687;SDS011;9993;52.008;4.732;2022-07-06T12:27:54;2.25;;;1.30;;
19687;SDS011;9993;52.008;4.732;2022-07-06T12:30:19;3.13;;;1.20;;
19687;SDS011;9993;52.008;4.732;2022-07-06T12:32:44;3.58;;;1.35;;
19687;SDS011;9993;52.008;4.732;2022-07-06T12:35:10;2.47;;;1.33;;
19687;SDS011;9993;52.008;4.732;2022-07-06T12:37:36;4.95;;;1.42;;
19687;SDS011;9993;52.008;4.732;2022-07-06T12:40:13;4.05;;;1.30;;
19687;SDS011;9993;52.008;4.732;2022-07-06T12:42:54;1.30;;;1.02;;
19687;SDS011;9993;52.008;4.732;2022-07-06T12:45:19;1.80;;;1.00;;
19687;SDS011;9993;52.008;4.732;2022-07-06T12:48:00;1.77;;;1.30;;
19687;SDS011;9993;52.008;4.732;2022-07-06T12:53:00;1.67;;;0.98;;
19687;SDS011;9993;52.008;4.732;2022-07-06T12:55:26;3.00;;;1.40;;
19687;SDS011;9993;52.008;4.732;2022-07-06T12:57:52;2.78;;;1.58;;
19687;SDS011;9993;52.008;4.732;2022-07-06T13:00:17;3.97;;;1.40;;
19687;SDS011;9993;52.008;4.732;2022-07-06T13:02:55;1.42;;;1.33;;
19687;SDS011;9993;52.008;4.732;2022-07-06T13:05:27;3.00;;;1.40;;
19687;SDS011;9993;52.008;4.732;2022-07-06T13:07:53;1.20;;;1.10;;
19687;SDS011;9993;52.008;4.732;2022-07-06T13:10:19;2.08;;;1.23;;
19687;SDS011;9993;52.008;4.732;2022-07-06T13:12:46;3.72;;;1.70;;
19687;SDS011;9993;52.008;4.732;2022-07-06T13:15:11;3.92;;;2.55;;
19687;SDS011;9993;52.008;4.732;2022-07-06T13:17:36;2.00;;;1.20;;
19687;SDS011;9993;52.008;4.732;2022-07-06T13:20:18;1.08;;;0.98;;
19687;SDS011;9993;52.008;4.732;2022-07-06T13:25:34;2.80;;;1.65;;
19687;SDS011;9993;52.008;4.732;2022-07-06T13:27:59;3.33;;;1.40;;
19687;SDS011;9993;52.008;4.732;2022-07-06T13:30:31;3.72;;;1.55;;
19687;SDS011;9993;52.008;4.732;2022-07-06T13:32:56;1.83;;;1.33;;
19687;SDS011;9993;52.008;4.732;2022-07-06T13:35:22;3.67;;;1.40;;
19687;SDS011;9993;52.008;4.732;2022-07-06T13:37:47;2.13;;;1.35;;
19687;SDS011;9993;52.008;4.732;2022-07-06T13:40:14;3.92;;;1.70;;
19687;SDS011;9993;52.008;4.732;2022-07-06T13:42:39;2.70;;;1.27;;
19687;SDS011;9993;52.008;4.732;2022-07-06T13:45:04;3.13;;;1.77;;
19687;SDS011;9993;52.008;4.732;2022-07-06T13:47:29;1.88;;;1.40;;
19687;SDS011;9993;52.008;4.732;2022-07-06T13:49:55;1.70;;;1.40;;
19687;SDS011;9993;52.008;4.732;2022-07-06T13:52:20;3.78;;;2.03;;
19687;SDS011;9993;52.008;4.732;2022-07-06T13:54:46;4.55;;;2.05;;
19687;SDS011;9993;52.008;4.732;2022-07-06T13:57:11;3.90;;;1.73;;
19687;SDS011;9993;52.008;4.732;2022-07-06T13:59:37;3.37;;;1.33;;
19687;SDS011;9993;52.008;4.732;2022-07-06T14:02:02;1.65;;;1.35;;
19687;SDS011;9993;52.008;4.732;2022-07-06T14:04:27;4.53;;;1.63;;
19687;SDS011;9993;52.008;4.732;2022-07-06T14:06:52;5.07;;;1.67;;
19687;SDS011;9993;52.008;4.732;2022-07-06T14:09:18;1.98;;;1.45;;
19687;SDS011;9993;52.008;4.732;2022-07-06T14:11:43;1.63;;;1.45;;
19687;SDS011;9993;52.008;4.732;2022-07-06T14:14:08;1.40;;;1.30;;
19687;SDS011;9993;52.008;4.732;2022-07-06T14:16:36;1.60;;;1.50;;
19687;SDS011;9993;52.008;4.732;2022-07-06T14:19:02;3.47;;;1.77;;
19687;SDS011;9993;52.008;4.732;2022-07-06T14:21:27;2.63;;;1.65;;
19687;SDS011;9993;52.008;4.732;2022-07-06T14:23:52;2.85;;;1.60;;
19687;SDS011;9993;52.008;4.732;2022-07-06T14:26:17;4.93;;;1.70;;
19687;SDS011;9993;52.008;4.732;2022-07-06T14:28:43;4.80;;;1.80;;
19687;SDS011;9993;52.008;4.732;2022-07-06T14:31:08;2.40;;;2.13;;
19687;SDS011;9993;52.008;4.732;2022-07-06T14:33:33;4.37;;;2.00;;
19687;SDS011;9993;52.008;4.732;2022-07-06T14:35:58;4.43;;;2.15;;
19687;SDS011;9993;52.008;4.732;2022-07-06T14:38:24;5.20;;;2.03;;
19687;SDS011;9993;52.008;4.732;2022-07-06T14:40:49;3.25;;;1.63;;
19687;SDS011;9993;52.008;4.732;2022-07-06T14:43:15;3.53;;;2.20;;
19687;SDS011;9993;52.008;4.732;2022-07-06T14:45:40;4.72;;;2.70;;
19687;SDS011;9993;52.008;4.732;2022-07-06T14:48:07;3.70;;;2.60;;
19687;SDS011;9993;52.008;4.732;2022-07-06T14:50:33;4.50;;;2.60;;
19687;SDS011;9993;52.008;4.732;2022-07-06T14:52:59;3.47;;;1.90;;
19687;SDS011;9993;52.008;4.732;2022-07-06T14:55:25;2.87;;;1.93;;
19687;SDS011;9993;52.008;4.732;2022-07-06T14:57:50;4.20;;;2.08;;
19687;SDS011;9993;52.008;4.732;2022-07-06T15:00:15;3.83;;;2.47;;
19687;SDS011;9993;52.008;4.732;2022-07-06T15:02:41;5.93;;;2.95;;
19687;SDS011;9993;52.008;4.732;2022-07-06T15:05:07;7.15;;;2.80;;
19687;SDS011;9993;52.008;4.732;2022-07-06T15:07:32;5.30;;;2.80;;
19687;SDS011;9993;52.008;4.732;2022-07-06T15:09:57;3.90;;;2.65;;
19687;SDS011;9993;52.008;4.732;2022-07-06T15:12:22;4.90;;;2.57;;
19687;SDS011;9993;52.008;4.732;2022-07-06T15:14:48;4.40;;;2.70;;
19687;SDS011;9993;52.008;4.732;2022-07-06T15:17:13;4.50;;;2.50;;
19687;SDS011;9993;52.008;4.732;2022-07-06T15:19:38;3.63;;;2.27;;